sensor_id;sensor_type;location;lat;lon;timestamp;pressure;altitude;pressure_sealevel;temperature;humidity
6200;BME280;3133;43.214;27.906;2023-04-26T00:00:36;99612.13;;;12.25;100.00
6200;BME280;3133;43.214;27.906;2023-04-26T00:03:09;99619.63;;;12.39;100.00
6200;BME280;3133;43.214;27.906;2023-04-26T00:05:37;99622.88;;;12.52;100.00
6200;BME280;3133;43.214;27.906;2023-04-26T00:08:04;99616.47;;;12.63;100.00
6200;BME280;3133;43.214;27.906;2023-04-26T00:10:31;99623.25;;;12.72;100.00
6200;BME280;3133;43.214;27.906;2023-04-26T00:12:58;99617.03;;;12.77;100.00
6200;BME280;3133;43.214;27.906;2023-04-26T00:15:25;99600.53;;;12.74;100.00
6200;BME280;3133;43.214;27.906;2023-04-26T00:17:51;99618.47;;;12.89;100.00
6200;BME280;3133;43.214;27.906;2023-04-26T00:20:21;99602.06;;;12.84;100.00
6200;BME280;3133;43.214;27.906;2023-04-26T00:22:49;99608.03;;;12.89;100.00
6200;BME280;3133;43.214;27.906;2023-04-26T00:25:16;99625.16;;;13.02;100.00
6200;BME280;3133;43.214;27.906;2023-04-26T00:27:42;99626.88;;;13.03;100.00
6200;BME280;3133;43.214;27.906;2023-04-26T00:30:10;99621.75;;;12.98;100.00
6200;BME280;3133;43.214;27.906;2023-04-26T00:32:37;99625.09;;;13.03;100.00
6200;BME280;3133;43.214;27.906;2023-04-26T00:35:04;99629.47;;;13.04;100.00
6200;BME280;3133;43.214;27.906;2023-04-26T00:37:33;99610.31;;;12.66;100.00
6200;BME280;3133;43.214;27.906;2023-04-26T00:40:00;99627.00;;;12.62;100.00
6200;BME280;3133;43.214;27.906;2023-04-26T00:42:27;99621.72;;;12.63;100.00
6200;BME280;3133;43.214;27.906;2023-04-26T00:44:54;99615.22;;;12.43;100.00
6200;BME280;3133;43.214;27.906;2023-04-26T00:47:21;99622.00;;;12.51;100.00
6200;BME280;3133;43.214;27.906;2023-04-26T00:49:48;99596.34;;;12.30;100.00
6200;BME280;3133;43.214;27.906;2023-04-26T00:52:15;99628.50;;;12.33;100.00
6200;BME280;3133;43.214;27.906;2023-04-26T00:54:44;99628.78;;;12.20;100.00
6200;BME280;3133;43.214;27.906;2023-04-26T00:57:11;99564.03;;;11.93;100.00
6200;BME280;3133;43.214;27.906;2023-04-26T00:59:38;99621.41;;;12.39;100.00
6200;BME280;3133;43.214;27.906;2023-04-26T01:02:05;99602.00;;;12.10;100.00
6200;BME280;3133;43.214;27.906;2023-04-26T01:04:33;99618.53;;;12.09;100.00
6200;BME280;3133;43.214;27.906;2023-04-26T01:07:01;99622.56;;;12.25;100.00
6200;BME280;3133;43.214;27.906;2023-04-26T01:09:30;99614.41;;;12.39;100.00
6200;BME280;3133;43.214;27.906;2023-04-26T01:11:59;99606.69;;;12.35;100.00
6200;BME280;3133;43.214;27.906;2023-04-26T01:14:26;99602.28;;;12.37;100.00
6200;BME280;3133;43.214;27.906;2023-04-26T01:16:54;99619.59;;;12.42;100.00
6200;BME280;3133;43.214;27.906;2023-04-26T01:19:22;99613.59;;;12.37;100.00
6200;BME280;3133;43.214;27.906;2023-04-26T01:21:50;99617.03;;;12.39;100.00
6200;BME280;3133;43.214;27.906;2023-04-26T01:24:18;99618.72;;;12.43;100.00
6200;BME280;3133;43.214;27.906;2023-04-26T01:26:45;99618.06;;;12.32;100.00
6200;BME280;3133;43.214;27.906;2023-04-26T01:29:12;99616.09;;;12.43;100.00
6200;BME280;3133;43.214;27.906;2023-04-26T01:31:40;99615.97;;;12.48;100.00
6200;BME280;3133;43.214;27.906;2023-04-26T01:34:07;99593.53;;;12.38;100.00
6200;BME280;3133;43.214;27.906;2023-04-26T01:36:34;99519.53;;;11.97;100.00
6200;BME280;3133;43.214;27.906;2023-04-26T01:39:01;99539.16;;;12.15;100.00
6200;BME280;3133;43.214;27.906;2023-04-26T01:41:29;99599.09;;;12.61;100.00
6200;BME280;3133;43.214;27.906;2023-04-26T01:43:58;99599.97;;;12.61;100.00
6200;BME280;3133;43.214;27.906;2023-04-26T01:46:24;99584.47;;;12.52;100.00
6200;BME280;3133;43.214;27.906;2023-04-26T01:48:51;99591.97;;;12.67;100.00
6200;BME280;3133;43.214;27.906;2023-04-26T01:51:18;99597.13;;;12.70;100.00
6200;BME280;3133;43.214;27.906;2023-04-26T01:53:46;99582.47;;;12.63;100.00
6200;BME280;3133;43.214;27.906;2023-04-26T01:56:12;99549.97;;;12.38;100.00
6200;BME280;3133;43.214;27.906;2023-04-26T01:58:41;99598.84;;;12.71;100.00
6200;BME280;3133;43.214;27.906;2023-04-26T02:01:09;99597.97;;;12.72;100.00
6200;BME280;3133;43.214;27.906;2023-04-26T02:03:36;99588.53;;;12.67;100.00
6200;BME280;3133;43.214;27.906;2023-04-26T02:06:03;99577.47;;;12.54;100.00
6200;BME280;3133;43.214;27.906;2023-04-26T02:08:30;99591.66;;;12.44;100.00
6200;BME280;3133;43.214;27.906;2023-04-26T02:10:57;99601.22;;;12.45;100.00
6200;BME280;3133;43.214;27.906;2023-04-26T02:13:24;99595.19;;;12.43;100.00
6200;BME280;3133;43.214;27.906;2023-04-26T02:15:52;99592.75;;;12.34;100.00
6200;BME280;3133;43.214;27.906;2023-04-26T02:18:20;99573.88;;;12.21;100.00
6200;BME280;3133;43.214;27.906;2023-04-26T02:20:48;99599.78;;;12.32;100.00
6200;BME280;3133;43.214;27.906;2023-04-26T02:23:15;99597.97;;;12.34;100.00
6200;BME280;3133;43.214;27.906;2023-04-26T02:25:44;99598.03;;;12.32;100.00
6200;BME280;3133;43.214;27.906;2023-04-26T02:28:11;99599.78;;;11.91;100.00
6200;BME280;3133;43.214;27.906;2023-04-26T02:30:38;99606.47;;;12.04;100.00
6200;BME280;3133;43.214;27.906;2023-04-26T02:33:07;99605.47;;;12.11;100.00
6200;BME280;3133;43.214;27.906;2023-04-26T02:35:34;99588.38;;;11.95;100.00
6200;BME280;3133;43.214;27.906;2023-04-26T02:38:01;99597.00;;;11.98;100.00
6200;BME280;3133;43.214;27.906;2023-04-26T02:40:28;99598.56;;;11.63;100.00
6200;BME280;3133;43.214;27.906;2023-04-26T02:42:55;99594.22;;;11.63;100.00
6200;BME280;3133;43.214;27.906;2023-04-26T02:45:22;99594.44;;;11.51;100.00
6200;BME280;3133;43.214;27.906;2023-04-26T02:47:49;99593.34;;;11.63;100.00
6200;BME280;3133;43.214;27.906;2023-04-26T02:50:17;99582.75;;;11.72;100.00
6200;BME280;3133;43.214;27.906;2023-04-26T02:52:44;99572.22;;;11.76;100.00
6200;BME280;3133;43.214;27.906;2023-04-26T02:55:11;99561.19;;;11.61;100.00
6200;BME280;3133;43.214;27.906;2023-04-26T02:57:38;99541.44;;;11.47;100.00
6200;BME280;3133;43.214;27.906;2023-04-26T03:00:06;99593.72;;;11.89;100.00
6200;BME280;3133;43.214;27.906;2023-04-26T03:02:33;99570.56;;;11.71;100.00
6200;BME280;3133;43.214;27.906;2023-04-26T03:05:00;99583.38;;;11.84;100.00
6200;BME280;3133;43.214;27.906;2023-04-26T03:07:29;99581.50;;;11.91;100.00
6200;BME280;3133;43.214;27.906;2023-04-26T03:09:56;99589.19;;;11.97;100.00
6200;BME280;3133;43.214;27.906;2023-04-26T03:12:23;99576.09;;;11.98;100.00
6200;BME280;3133;43.214;27.906;2023-04-26T03:14:50;99561.47;;;11.90;100.00
6200;BME280;3133;43.214;27.906;2023-04-26T03:17:17;99590.72;;;12.07;100.00
6200;BME280;3133;43.214;27.906;2023-04-26T03:19:44;99585.38;;;12.13;100.00
6200;BME280;3133;43.214;27.906;2023-04-26T03:22:10;99584.09;;;11.91;100.00
6200;BME280;3133;43.214;27.906;2023-04-26T03:24:41;99582.09;;;12.03;100.00
6200;BME280;3133;43.214;27.906;2023-04-26T03:27:08;99563.25;;;11.89;100.00
6200;BME280;3133;43.214;27.906;2023-04-26T03:29:35;99589.34;;;11.91;100.00
6200;BME280;3133;43.214;27.906;2023-04-26T03:32:02;99517.28;;;11.38;100.00
6200;BME280;3133;43.214;27.906;2023-04-26T03:34:29;99585.94;;;11.86;100.00
6200;BME280;3133;43.214;27.906;2023-04-26T03:36:56;99591.50;;;11.69;100.00
6200;BME280;3133;43.214;27.906;2023-04-26T03:39:23;99588.84;;;11.72;100.00
6200;BME280;3133;43.214;27.906;2023-04-26T03:41:52;99505.19;;;11.32;100.00
6200;BME280;3133;43.214;27.906;2023-04-26T03:44:19;99516.69;;;11.22;100.00
6200;BME280;3133;43.214;27.906;2023-04-26T03:46:46;99572.91;;;11.38;100.00
6200;BME280;3133;43.214;27.906;2023-04-26T03:49:13;99569.69;;;11.27;100.00
6200;BME280;3133;43.214;27.906;2023-04-26T03:51:40;99586.03;;;11.35;100.00
6200;BME280;3133;43.214;27.906;2023-04-26T03:54:07;99588.69;;;11.32;100.00
6200;BME280;3133;43.214;27.906;2023-04-26T03:56:33;99559.59;;;11.06;100.00
6200;BME280;3133;43.214;27.906;2023-04-26T03:59:02;99589.38;;;11.43;100.00
6200;BME280;3133;43.214;27.906;2023-04-26T04:01:29;99583.94;;;11.54;100.00
6200;BME280;3133;43.214;27.906;2023-04-26T04:03:56;99587.50;;;11.50;100.00
6200;BME280;3133;43.214;27.906;2023-04-26T04:06:23;99564.47;;;11.26;100.00
6200;BME280;3133;43.214;27.906;2023-04-26T04:08:50;99568.25;;;11.10;100.00
6200;BME280;3133;43.214;27.906;2023-04-26T04:11:31;99598.72;;;11.55;100.00
6200;BME280;3133;43.214;27.906;2023-04-26T04:14:04;99604.88;;;11.52;100.00
6200;BME280;3133;43.214;27.906;2023-04-26T04:16:31;99538.09;;;10.94;100.00
6200;BME280;3133;43.214;27.906;2023-04-26T04:18:58;99612.66;;;11.05;100.00
6200;BME280;3133;43.214;27.906;2023-04-26T04:21:25;99600.38;;;11.12;100.00
6200;BME280;3133;43.214;27.906;2023-04-26T04:23:52;99510.53;;;10.79;100.00
6200;BME280;3133;43.214;27.906;2023-04-26T04:26:19;99554.00;;;11.27;100.00
6200;BME280;3133;43.214;27.906;2023-04-26T04:28:46;99584.69;;;11.61;100.00
6200;BME280;3133;43.214;27.906;2023-04-26T04:31:16;99596.38;;;11.86;100.00
6200;BME280;3133;43.214;27.906;2023-04-26T04:33:43;99592.16;;;11.80;100.00
6200;BME280;3133;43.214;27.906;2023-04-26T04:36:10;99564.31;;;11.79;100.00
6200;BME280;3133;43.214;27.906;2023-04-26T04:38:37;99604.22;;;11.86;100.00
6200;BME280;3133;43.214;27.906;2023-04-26T04:41:05;99592.13;;;11.82;100.00
6200;BME280;3133;43.214;27.906;2023-04-26T04:43:32;99434.16;;;11.17;100.00
6200;BME280;3133;43.214;27.906;2023-04-26T04:45:59;99604.31;;;12.22;100.00
6200;BME280;3133;43.214;27.906;2023-04-26T04:48:27;99598.81;;;12.36;100.00
6200;BME280;3133;43.214;27.906;2023-04-26T04:50:56;99598.19;;;12.25;100.00
6200;BME280;3133;43.214;27.906;2023-04-26T04:53:23;99568.06;;;12.09;100.00
6200;BME280;3133;43.214;27.906;2023-04-26T04:55:50;99587.44;;;12.39;100.00
6200;BME280;3133;43.214;27.906;2023-04-26T04:58:16;99599.38;;;12.49;100.00
6200;BME280;3133;43.214;27.906;2023-04-26T05:00:43;99616.38;;;12.68;100.00
6200;BME280;3133;43.214;27.906;2023-04-26T05:03:12;99606.63;;;12.74;100.00
6200;BME280;3133;43.214;27.906;2023-04-26T05:05:41;99609.84;;;12.49;100.00
6200;BME280;3133;43.214;27.906;2023-04-26T05:08:07;99614.06;;;12.54;100.00
6200;BME280;3133;43.214;27.906;2023-04-26T05:10:35;99592.94;;;12.65;100.00
6200;BME280;3133;43.214;27.906;2023-04-26T05:13:03;99611.59;;;12.85;100.00
6200;BME280;3133;43.214;27.906;2023-04-26T05:15:30;99620.38;;;12.82;100.00
6200;BME280;3133;43.214;27.906;2023-04-26T05:17:57;99613.16;;;12.93;100.00
6200;BME280;3133;43.214;27.906;2023-04-26T05:20:25;99617.66;;;12.87;100.00
6200;BME280;3133;43.214;27.906;2023-04-26T05:22:55;99537.19;;;12.24;100.00
6200;BME280;3133;43.214;27.906;2023-04-26T05:25:22;99599.53;;;12.79;100.00
6200;BME280;3133;43.214;27.906;2023-04-26T05:27:49;99607.72;;;12.66;100.00
6200;BME280;3133;43.214;27.906;2023-04-26T05:30:15;99499.88;;;12.18;100.00
6200;BME280;3133;43.214;27.906;2023-04-26T05:32:46;99620.13;;;12.93;100.00
6200;BME280;3133;43.214;27.906;2023-04-26T05:35:14;99625.06;;;13.06;100.00
6200;BME280;3133;43.214;27.906;2023-04-26T05:37:41;99545.00;;;12.63;100.00
6200;BME280;3133;43.214;27.906;2023-04-26T05:40:10;99629.13;;;12.45;100.00
6200;BME280;3133;43.214;27.906;2023-04-26T05:42:39;99599.69;;;12.35;100.00
6200;BME280;3133;43.214;27.906;2023-04-26T05:45:07;99619.38;;;12.51;100.00
6200;BME280;3133;43.214;27.906;2023-04-26T05:47:34;99636.88;;;12.48;100.00
6200;BME280;3133;43.214;27.906;2023-04-26T05:50:02;99636.66;;;12.58;100.00
6200;BME280;3133;43.214;27.906;2023-04-26T05:52:29;99635.50;;;12.70;100.00
6200;BME280;3133;43.214;27.906;2023-04-26T05:54:56;99628.19;;;12.85;100.00
6200;BME280;3133;43.214;27.906;2023-04-26T05:57:25;99636.94;;;12.83;100.00
6200;BME280;3133;43.214;27.906;2023-04-26T05:59:52;99621.22;;;12.84;100.00
6200;BME280;3133;43.214;27.906;2023-04-26T06:02:18;99644.50;;;12.96;100.00
6200;BME280;3133;43.214;27.906;2023-04-26T06:04:45;99649.09;;;12.85;100.00
6200;BME280;3133;43.214;27.906;2023-04-26T06:07:12;99557.63;;;12.07;100.00
6200;BME280;3133;43.214;27.906;2023-04-26T06:09:40;99650.31;;;12.71;100.00
6200;BME280;3133;43.214;27.906;2023-04-26T06:12:07;99600.16;;;12.52;100.00
6200;BME280;3133;43.214;27.906;2023-04-26T06:14:36;99654.09;;;12.96;100.00
6200;BME280;3133;43.214;27.906;2023-04-26T06:17:03;99650.50;;;13.00;100.00
6200;BME280;3133;43.214;27.906;2023-04-26T06:19:30;99659.22;;;13.00;100.00
6200;BME280;3133;43.214;27.906;2023-04-26T06:21:57;99558.31;;;12.54;100.00
6200;BME280;3133;43.214;27.906;2023-04-26T06:24:24;99662.25;;;13.21;100.00
6200;BME280;3133;43.214;27.906;2023-04-26T06:26:51;99597.91;;;12.75;100.00
6200;BME280;3133;43.214;27.906;2023-04-26T06:29:20;99601.69;;;12.62;100.00
6200;BME280;3133;43.214;27.906;2023-04-26T06:31:49;99656.31;;;13.13;100.00
6200;BME280;3133;43.214;27.906;2023-04-26T06:34:16;99651.56;;;13.28;100.00
6200;BME280;3133;43.214;27.906;2023-04-26T06:36:45;99613.84;;;13.00;100.00
6200;BME280;3133;43.214;27.906;2023-04-26T06:39:12;99651.38;;;13.36;100.00
6200;BME280;3133;43.214;27.906;2023-04-26T06:41:39;99660.69;;;13.47;100.00
6200;BME280;3133;43.214;27.906;2023-04-26T06:44:06;99583.63;;;12.88;100.00
6200;BME280;3133;43.214;27.906;2023-04-26T06:46:33;99658.44;;;13.32;100.00
6200;BME280;3133;43.214;27.906;2023-04-26T06:49:02;99661.50;;;13.49;100.00
6200;BME280;3133;43.214;27.906;2023-04-26T06:51:30;99659.13;;;13.40;100.00
6200;BME280;3133;43.214;27.906;2023-04-26T06:53:57;99672.53;;;13.28;100.00
6200;BME280;3133;43.214;27.906;2023-04-26T06:56:26;99599.06;;;12.99;100.00
6200;BME280;3133;43.214;27.906;2023-04-26T06:58:58;99613.34;;;13.23;100.00
6200;BME280;3133;43.214;27.906;2023-04-26T07:01:27;99562.44;;;12.99;100.00
6200;BME280;3133;43.214;27.906;2023-04-26T07:03:59;99631.41;;;13.64;100.00
6200;BME280;3133;43.214;27.906;2023-04-26T07:06:29;99550.56;;;13.20;100.00
6200;BME280;3133;43.214;27.906;2023-04-26T07:08:57;99673.19;;;14.02;100.00
6200;BME280;3133;43.214;27.906;2023-04-26T07:11:24;99679.31;;;14.01;100.00
6200;BME280;3133;43.214;27.906;2023-04-26T07:13:51;99649.56;;;14.04;100.00
6200;BME280;3133;43.214;27.906;2023-04-26T07:16:18;99672.72;;;14.19;100.00
6200;BME280;3133;43.214;27.906;2023-04-26T07:18:45;99681.13;;;14.31;100.00
6200;BME280;3133;43.214;27.906;2023-04-26T07:21:13;99575.09;;;13.80;100.00
6200;BME280;3133;43.214;27.906;2023-04-26T07:23:41;99485.06;;;13.23;100.00
6200;BME280;3133;43.214;27.906;2023-04-26T07:26:10;99680.25;;;13.99;100.00
6200;BME280;3133;43.214;27.906;2023-04-26T07:28:37;99678.44;;;14.02;100.00
6200;BME280;3133;43.214;27.906;2023-04-26T07:31:04;99683.03;;;14.25;100.00
6200;BME280;3133;43.214;27.906;2023-04-26T07:33:31;99684.47;;;14.36;100.00
6200;BME280;3133;43.214;27.906;2023-04-26T07:35:58;99536.59;;;13.53;100.00
6200;BME280;3133;43.214;27.906;2023-04-26T07:38:26;99660.59;;;14.45;100.00
6200;BME280;3133;43.214;27.906;2023-04-26T07:40:54;99683.25;;;14.77;100.00
6200;BME280;3133;43.214;27.906;2023-04-26T07:43:22;99658.94;;;14.43;100.00
6200;BME280;3133;43.214;27.906;2023-04-26T07:45:49;99690.75;;;14.89;100.00
6200;BME280;3133;43.214;27.906;2023-04-26T07:48:16;99682.31;;;15.07;100.00
6200;BME280;3133;43.214;27.906;2023-04-26T07:50:45;99685.75;;;15.09;100.00
6200;BME280;3133;43.214;27.906;2023-04-26T07:53:13;99542.84;;;14.36;100.00
6200;BME280;3133;43.214;27.906;2023-04-26T07:55:49;99582.22;;;14.90;100.00
6200;BME280;3133;43.214;27.906;2023-04-26T07:58:26;99605.94;;;15.38;100.00
6200;BME280;3133;43.214;27.906;2023-04-26T08:00:53;99649.31;;;16.00;100.00
6200;BME280;3133;43.214;27.906;2023-04-26T08:03:38;99680.81;;;16.27;100.00
6200;BME280;3133;43.214;27.906;2023-04-26T08:06:05;99612.19;;;15.85;100.00
6200;BME280;3133;43.214;27.906;2023-04-26T08:08:35;99700.41;;;16.43;100.00
6200;BME280;3133;43.214;27.906;2023-04-26T08:11:07;99705.63;;;16.20;100.00
6200;BME280;3133;43.214;27.906;2023-04-26T08:13:43;99678.00;;;16.31;100.00
6200;BME280;3133;43.214;27.906;2023-04-26T08:16:13;99662.44;;;16.48;100.00
6200;BME280;3133;43.214;27.906;2023-04-26T08:18:42;99702.47;;;16.58;100.00
6200;BME280;3133;43.214;27.906;2023-04-26T08:21:12;99708.63;;;16.80;100.00
6200;BME280;3133;43.214;27.906;2023-04-26T08:23:53;99591.88;;;16.13;100.00
6200;BME280;3133;43.214;27.906;2023-04-26T08:26:25;99683.69;;;16.44;100.00
6200;BME280;3133;43.214;27.906;2023-04-26T08:28:58;99630.72;;;16.53;100.00
6200;BME280;3133;43.214;27.906;2023-04-26T08:31:25;99695.81;;;17.16;100.00
6200;BME280;3133;43.214;27.906;2023-04-26T08:33:52;99667.31;;;17.04;100.00
6200;BME280;3133;43.214;27.906;2023-04-26T08:36:19;99679.31;;;16.89;100.00
6200;BME280;3133;43.214;27.906;2023-04-26T08:38:46;99710.94;;;17.11;100.00
6200;BME280;3133;43.214;27.906;2023-04-26T08:41:20;99671.22;;;16.72;100.00
6200;BME280;3133;43.214;27.906;2023-04-26T08:43:53;99614.94;;;16.30;100.00
6200;BME280;3133;43.214;27.906;2023-04-26T08:46:25;99711.72;;;16.91;100.00
6200;BME280;3133;43.214;27.906;2023-04-26T08:48:58;99609.06;;;16.22;100.00
6200;BME280;3133;43.214;27.906;2023-04-26T08:51:29;99712.88;;;16.84;100.00
6200;BME280;3133;43.214;27.906;2023-04-26T08:53:58;99721.75;;;16.81;100.00
6200;BME280;3133;43.214;27.906;2023-04-26T08:56:30;99631.44;;;15.87;100.00
6200;BME280;3133;43.214;27.906;2023-04-26T08:58:59;99629.38;;;15.46;100.00
6200;BME280;3133;43.214;27.906;2023-04-26T09:01:30;99703.84;;;16.20;100.00
6200;BME280;3133;43.214;27.906;2023-04-26T09:04:00;99710.59;;;16.52;100.00
6200;BME280;3133;43.214;27.906;2023-04-26T09:06:27;99591.59;;;15.97;100.00
6200;BME280;3133;43.214;27.906;2023-04-26T09:08:56;99665.25;;;16.44;100.00
6200;BME280;3133;43.214;27.906;2023-04-26T09:11:23;99714.72;;;16.59;100.00
6200;BME280;3133;43.214;27.906;2023-04-26T09:13:50;99691.75;;;16.39;100.00
6200;BME280;3133;43.214;27.906;2023-04-26T09:16:35;99715.91;;;16.26;100.00
6200;BME280;3133;43.214;27.906;2023-04-26T09:19:01;99712.72;;;16.18;100.00
6200;BME280;3133;43.214;27.906;2023-04-26T09:21:28;99614.44;;;15.48;100.00
6200;BME280;3133;43.214;27.906;2023-04-26T09:23:57;99716.53;;;15.84;100.00
6200;BME280;3133;43.214;27.906;2023-04-26T09:26:24;99620.56;;;15.20;100.00
6200;BME280;3133;43.214;27.906;2023-04-26T09:29:12;99723.50;;;15.85;100.00
6200;BME280;3133;43.214;27.906;2023-04-26T09:31:43;99725.88;;;15.93;100.00
6200;BME280;3133;43.214;27.906;2023-04-26T09:34:11;99715.06;;;16.00;100.00
6200;BME280;3133;43.214;27.906;2023-04-26T09:36:50;99716.31;;;15.90;100.00
6200;BME280;3133;43.214;27.906;2023-04-26T09:39:31;99643.66;;;15.63;100.00
6200;BME280;3133;43.214;27.906;2023-04-26T09:41:59;99713.78;;;15.87;100.00
6200;BME280;3133;43.214;27.906;2023-04-26T09:44:28;99688.94;;;15.71;100.00
6200;BME280;3133;43.214;27.906;2023-04-26T09:47:02;99716.75;;;16.03;100.00
6200;BME280;3133;43.214;27.906;2023-04-26T09:49:30;99707.41;;;16.19;100.00
6200;BME280;3133;43.214;27.906;2023-04-26T09:52:03;99678.72;;;16.11;100.00
6200;BME280;3133;43.214;27.906;2023-04-26T09:54:48;99648.41;;;15.78;100.00
6200;BME280;3133;43.214;27.906;2023-04-26T09:57:17;99709.59;;;16.06;100.00
6200;BME280;3133;43.214;27.906;2023-04-26T09:59:47;99658.34;;;15.16;100.00
6200;BME280;3133;43.214;27.906;2023-04-26T10:02:18;99700.84;;;15.01;100.00
6200;BME280;3133;43.214;27.906;2023-04-26T10:04:48;99658.16;;;14.69;100.00
6200;BME280;3133;43.214;27.906;2023-04-26T10:07:16;99688.16;;;15.15;100.00
6200;BME280;3133;43.214;27.906;2023-04-26T10:09:44;99689.97;;;14.58;100.00
6200;BME280;3133;43.214;27.906;2023-04-26T10:12:13;99689.75;;;14.35;100.00
6200;BME280;3133;43.214;27.906;2023-04-26T10:14:41;99683.50;;;14.40;100.00
6200;BME280;3133;43.214;27.906;2023-04-26T10:17:09;99688.94;;;14.02;100.00
6200;BME280;3133;43.214;27.906;2023-04-26T10:19:40;99680.69;;;13.83;100.00
6200;BME280;3133;43.214;27.906;2023-04-26T10:22:13;99682.88;;;13.99;100.00
6200;BME280;3133;43.214;27.906;2023-04-26T10:24:42;99618.63;;;13.53;100.00
6200;BME280;3133;43.214;27.906;2023-04-26T10:27:10;99678.19;;;13.79;100.00
6200;BME280;3133;43.214;27.906;2023-04-26T10:30:04;99672.78;;;13.85;100.00
6200;BME280;3133;43.214;27.906;2023-04-26T10:32:32;99676.53;;;14.07;100.00
6200;BME280;3133;43.214;27.906;2023-04-26T10:35:10;99670.72;;;14.27;100.00
6200;BME280;3133;43.214;27.906;2023-04-26T10:38:07;99661.41;;;13.86;100.00
6200;BME280;3133;43.214;27.906;2023-04-26T10:40:37;99668.38;;;13.87;100.00
6200;BME280;3133;43.214;27.906;2023-04-26T10:43:26;99669.88;;;13.96;100.00
6200;BME280;3133;43.214;27.906;2023-04-26T10:45:53;99658.28;;;14.04;100.00
6200;BME280;3133;43.214;27.906;2023-04-26T10:48:22;99672.41;;;13.99;100.00
6200;BME280;3133;43.214;27.906;2023-04-26T10:51:11;99632.22;;;13.67;100.00
6200;BME280;3133;43.214;27.906;2023-04-26T10:54:02;99667.53;;;14.17;100.00
6200;BME280;3133;43.214;27.906;2023-04-26T10:56:51;99673.34;;;13.64;100.00
6200;BME280;3133;43.214;27.906;2023-04-26T10:59:37;99666.84;;;13.78;100.00
6200;BME280;3133;43.214;27.906;2023-04-26T11:02:13;99668.09;;;13.96;100.00
6200;BME280;3133;43.214;27.906;2023-04-26T11:04:52;99673.41;;;14.25;100.00
6200;BME280;3133;43.214;27.906;2023-04-26T11:07:40;99671.78;;;14.20;100.00
6200;BME280;3133;43.214;27.906;2023-04-26T11:10:24;99668.75;;;14.36;100.00
6200;BME280;3133;43.214;27.906;2023-04-26T11:13:10;99664.94;;;14.46;100.00
6200;BME280;3133;43.214;27.906;2023-04-26T11:15:40;99670.03;;;14.80;100.00
6200;BME280;3133;43.214;27.906;2023-04-26T11:18:08;99649.47;;;14.67;100.00
6200;BME280;3133;43.214;27.906;2023-04-26T11:20:36;99679.22;;;14.93;100.00
6200;BME280;3133;43.214;27.906;2023-04-26T11:23:06;99602.06;;;14.43;100.00
6200;BME280;3133;43.214;27.906;2023-04-26T11:25:38;99675.25;;;14.52;100.00
6200;BME280;3133;43.214;27.906;2023-04-26T11:28:09;99639.72;;;14.42;100.00
6200;BME280;3133;43.214;27.906;2023-04-26T11:31:02;99674.91;;;14.92;100.00
6200;BME280;3133;43.214;27.906;2023-04-26T11:33:33;99648.72;;;15.17;100.00
6200;BME280;3133;43.214;27.906;2023-04-26T11:36:11;99681.31;;;15.64;100.00
6200;BME280;3133;43.214;27.906;2023-04-26T11:38:42;99597.56;;;15.27;100.00
6200;BME280;3133;43.214;27.906;2023-04-26T11:41:13;99596.63;;;15.03;100.00
6200;BME280;3133;43.214;27.906;2023-04-26T11:43:52;99668.00;;;14.88;100.00
6200;BME280;3133;43.214;27.906;2023-04-26T11:46:22;99614.56;;;14.35;100.00
6200;BME280;3133;43.214;27.906;2023-04-26T11:48:57;99645.69;;;14.17;100.00
6200;BME280;3133;43.214;27.906;2023-04-26T11:51:26;99589.16;;;14.07;100.00
6200;BME280;3133;43.214;27.906;2023-04-26T11:54:27;99583.09;;;14.35;100.00
6200;BME280;3133;43.214;27.906;2023-04-26T11:56:56;99666.50;;;14.81;100.00
6200;BME280;3133;43.214;27.906;2023-04-26T11:59:37;99684.13;;;14.48;100.00
6200;BME280;3133;43.214;27.906;2023-04-26T12:02:05;99665.88;;;14.13;100.00
6200;BME280;3133;43.214;27.906;2023-04-26T12:04:37;99666.00;;;14.09;100.00
6200;BME280;3133;43.214;27.906;2023-04-26T12:07:06;99614.59;;;14.03;100.00
6200;BME280;3133;43.214;27.906;2023-04-26T12:09:39;99648.19;;;14.50;100.00
6200;BME280;3133;43.214;27.906;2023-04-26T12:12:10;99624.59;;;14.50;100.00
6200;BME280;3133;43.214;27.906;2023-04-26T12:14:38;99667.84;;;14.67;100.00
6200;BME280;3133;43.214;27.906;2023-04-26T12:17:06;99641.53;;;14.68;100.00
6200;BME280;3133;43.214;27.906;2023-04-26T12:19:35;99636.66;;;14.56;100.00
6200;BME280;3133;43.214;27.906;2023-04-26T12:22:02;99607.22;;;13.87;100.00
6200;BME280;3133;43.214;27.906;2023-04-26T12:24:31;99586.38;;;13.51;100.00
6200;BME280;3133;43.214;27.906;2023-04-26T12:27:07;99634.03;;;13.64;100.00
6200;BME280;3133;43.214;27.906;2023-04-26T12:29:35;99622.03;;;13.57;100.00
6200;BME280;3133;43.214;27.906;2023-04-26T12:32:03;99671.22;;;13.46;100.00
6200;BME280;3133;43.214;27.906;2023-04-26T12:34:33;99462.22;;;11.90;100.00
6200;BME280;3133;43.214;27.906;2023-04-26T12:37:14;99661.16;;;12.92;100.00
6200;BME280;3133;43.214;27.906;2023-04-26T12:39:41;99648.84;;;12.96;100.00
6200;BME280;3133;43.214;27.906;2023-04-26T12:42:24;99659.00;;;13.11;100.00
6200;BME280;3133;43.214;27.906;2023-04-26T12:44:51;99612.59;;;12.81;100.00
6200;BME280;3133;43.214;27.906;2023-04-26T12:47:20;99617.28;;;13.02;100.00
6200;BME280;3133;43.214;27.906;2023-04-26T12:49:48;99659.06;;;13.43;100.00
6200;BME280;3133;43.214;27.906;2023-04-26T12:52:16;99653.38;;;13.60;100.00
6200;BME280;3133;43.214;27.906;2023-04-26T12:54:46;99656.63;;;13.68;100.00
6200;BME280;3133;43.214;27.906;2023-04-26T12:57:18;99651.16;;;13.77;100.00
6200;BME280;3133;43.214;27.906;2023-04-26T12:59:47;99615.34;;;13.77;100.00
6200;BME280;3133;43.214;27.906;2023-04-26T13:02:32;99637.47;;;13.66;100.00
6200;BME280;3133;43.214;27.906;2023-04-26T13:05:04;99604.09;;;13.42;100.00
6200;BME280;3133;43.214;27.906;2023-04-26T13:07:45;99645.03;;;13.46;100.00
6200;BME280;3133;43.214;27.906;2023-04-26T13:10:26;99648.69;;;13.39;100.00
6200;BME280;3133;43.214;27.906;2023-04-26T13:12:58;99581.50;;;13.05;100.00